Time;durP1;ratioP1;P1;durP2;ratioP2;P2;SDS_P1;SDS_P2;PMS_P1;PMS_P2;Temp;Humidity;BMP_temperature;BMP_pressure;BME280_temperature;BME280_humidity;BME280_pressure;Samples;Min_cycle;Max_cycle;Signal;HPM_P1;HPM_P2
2022/11/09 00:02:04;;;;;;;4.30;2.85;;;;;10.60;93713.00;;;;7395699;19;20145;-76
2022/11/09 00:04:32;;;;;;;3.13;2.47;;;;;10.50;93710.00;;;;7396749;19;20612;-75
2022/11/09 00:07:05;;;;;;;5.70;2.80;;;;;10.50;93710.00;;;;7397251;19;20150;-76
2022/11/09 00:09:33;;;;;;;3.63;2.30;;;;;10.50;93712.00;;;;7394066;19;20129;-76
2022/11/09 00:12:03;;;;;;;3.63;2.38;;;;;10.40;93715.00;;;;7396409;19;20596;-76
2022/11/09 00:14:38;;;;;;;2.70;2.37;;;;;10.40;93710.00;;;;7399794;19;20148;-76
2022/11/09 00:17:05;;;;;;;3.05;2.17;;;;;10.40;93711.00;;;;7395547;19;20632;-77
2022/11/09 00:19:32;;;;;;;4.05;2.30;;;;;10.50;93721.00;;;;7395887;19;20626;-76
2022/11/09 00:22:06;;;;;;;3.78;2.25;;;;;10.30;93713.00;;;;7397598;19;20145;-77
2022/11/09 00:24:34;;;;;;;2.72;2.30;;;;;10.10;93722.00;;;;7399271;19;20172;-78
2022/11/09 00:27:01;;;;;;;5.65;2.63;;;;;10.00;93721.00;;;;7395745;19;20160;-78
2022/11/09 00:29:40;;;;;;;2.67;2.08;;;;;10.00;93714.00;;;;7396778;19;20216;-78
2022/11/09 00:32:07;;;;;;;2.75;2.08;;;;;10.10;93722.00;;;;7397245;19;20244;-77
2022/11/09 00:34:36;;;;;;;4.10;2.20;;;;;10.30;93712.00;;;;7399017;19;20744;-77
2022/11/09 00:37:09;;;;;;;4.13;2.50;;;;;10.60;93709.00;;;;7395261;19;20204;-76
2022/11/09 00:39:37;;;;;;;5.20;2.45;;;;;10.60;93705.00;;;;7397331;19;20228;-75
2022/11/09 00:42:06;;;;;;;3.50;2.20;;;;;10.80;93706.00;;;;7398693;19;20125;-76
2022/11/09 00:44:39;;;;;;;2.80;2.35;;;;;10.60;93713.00;;;;7397733;19;20541;-76
2022/11/09 00:47:07;;;;;;;3.08;2.20;;;;;10.60;93714.00;;;;7395747;19;20133;-76
2022/11/09 00:49:37;;;;;;;2.95;2.20;;;;;10.40;93712.00;;;;7394978;19;20178;-76
2022/11/09 00:52:17;;;;;;;4.00;2.33;;;;;10.40;93708.00;;;;7396887;19;20166;-76
2022/11/09 00:54:45;;;;;;;3.28;2.25;;;;;10.40;93716.00;;;;7397044;19;20132;-74
2022/11/09 00:57:18;;;;;;;1.95;1.75;;;;;10.30;93713.00;;;;7396618;19;20685;-78
2022/11/09 00:59:46;;;;;;;3.83;2.20;;;;;10.40;93715.00;;;;7394717;19;20148;-78
2022/11/09 01:02:13;;;;;;;2.72;2.40;;;;;10.40;93724.00;;;;7393896;19;20607;-76
2022/11/09 01:04:48;;;;;;;5.85;2.20;;;;;10.50;93734.00;;;;7397961;19;20507;-75
2022/11/09 01:07:15;;;;;;;4.72;2.55;;;;;10.70;93732.00;;;;7396433;19;20498;-78
2022/11/09 01:09:43;;;;;;;2.30;2.10;;;;;10.70;93722.00;;;;7395854;19;20140;-78
2022/11/09 01:12:16;;;;;;;3.63;2.20;;;;;10.70;93725.00;;;;7396186;19;20151;-77
2022/11/09 01:14:44;;;;;;;2.90;2.13;;;;;10.60;93719.00;;;;7395301;19;20156;-77
2022/11/09 01:17:11;;;;;;;5.25;2.40;;;;;10.40;93735.00;;;;7392643;19;20149;-78
2022/11/09 01:19:45;;;;;;;2.88;2.00;;;;;10.50;93725.00;;;;7397005;19;20137;-78
2022/11/09 01:22:13;;;;;;;3.22;2.30;;;;;10.60;93719.00;;;;7395812;19;20223;-77
2022/11/09 01:24:40;;;;;;;4.13;1.98;;;;;10.50;93729.00;;;;7395734;19;20148;-78
2022/11/09 01:27:15;;;;;;;3.15;2.10;;;;;10.40;93731.00;;;;7394128;19;20670;-77
2022/11/09 01:29:42;;;;;;;3.00;2.15;;;;;10.30;93711.00;;;;7394145;19;20596;-77
2022/11/09 01:32:09;;;;;;;4.40;2.45;;;;;10.20;93723.00;;;;7392657;19;20155;-77
2022/11/09 01:34:43;;;;;;;3.97;2.10;;;;;10.10;93718.00;;;;7394637;19;20212;-78
2022/11/09 01:37:11;;;;;;;2.55;1.80;;;;;10.10;93727.00;;;;7394667;19;20157;-77
2022/11/09 01:39:39;;;;;;;3.75;2.30;;;;;10.00;93725.00;;;;7393880;19;20150;-77
2022/11/09 01:42:13;;;;;;;2.55;1.75;;;;;10.00;93723.00;;;;7395287;19;20212;-77
2022/11/09 01:44:41;;;;;;;3.88;2.10;;;;;10.00;93734.00;;;;7395200;19;20147;-76
2022/11/09 01:47:20;;;;;;;2.95;1.85;;;;;10.00;93739.00;;;;7396874;19;20128;-78
2022/11/09 01:50:05;;;;;;;2.22;1.95;;;;;10.10;93736.00;;;;7393228;19;20523;-78
2022/11/09 01:52:44;;;;;;;2.65;1.67;;;;;10.20;93738.00;;;;7393747;19;20144;-77
2022/11/09 01:55:22;;;;;;;4.15;2.00;;;;;10.40;93737.00;;;;7392018;19;20227;-78
2022/11/09 01:57:59;;;;;;;3.35;1.90;;;;;10.30;93739.00;;;;7392417;19;20153;-75
2022/11/09 02:00:36;;;;;;;2.50;2.03;;;;;10.40;93731.00;;;;7392715;19;20129;-77
2022/11/09 02:03:18;;;;;;;2.83;1.70;;;;;10.40;93733.00;;;;7389714;19;20133;-77
2022/11/09 02:05:52;;;;;;;2.33;1.98;;;;;10.40;93735.00;;;;7391959;19;20135;-76
2022/11/09 02:08:22;;;;;;;4.35;2.03;;;;;10.40;93740.00;;;;7393891;19;20192;-76
2022/11/09 02:11:09;;;;;;;3.75;2.10;;;;;10.50;93735.00;;;;7389716;19;20156;-77
2022/11/09 02:13:54;;;;;;;2.63;1.45;;;;;10.60;93741.00;;;;7391763;19;20156;-76
2022/11/09 02:16:22;;;;;;;3.75;1.63;;;;;10.80;93745.00;;;;7394663;19;20129;-76
2022/11/09 02:18:59;;;;;;;3.58;2.10;;;;;10.80;93743.00;;;;7388616;19;20136;-76
2022/11/09 02:21:29;;;;;;;4.10;1.73;;;;;10.60;93746.00;;;;7392403;19;20615;-77
2022/11/09 02:24:04;;;;;;;4.65;2.00;;;;;10.60;93749.00;;;;7393698;19;20576;-77
2022/11/09 02:26:43;;;;;;;3.30;1.70;;;;;10.60;93753.00;;;;7392431;19;20137;-77
2022/11/09 02:29:24;;;;;;;3.30;2.00;;;;;10.50;93758.00;;;;7392283;19;20125;-76
2022/11/09 02:31:57;;;;;;;5.90;2.70;;;;;10.50;93762.00;;;;7392093;19;20662;-75
2022/11/09 02:34:32;;;;;;;4.60;2.15;;;;;10.50;93759.00;;;;7391441;19;20128;-76
2022/11/09 02:36:59;;;;;;;7.75;2.55;;;;;10.40;93760.00;;;;7389057;19;20603;-76
2022/11/09 02:39:27;;;;;;;3.95;2.10;;;;;10.40;93762.00;;;;7391283;19;20137;-76
2022/11/09 02:42:07;;;;;;;3.33;2.35;;;;;10.50;93758.00;;;;7392853;19;20148;-76
2022/11/09 02:44:45;;;;;;;2.97;1.98;;;;;10.60;93758.00;;;;7392589;19;20136;-74
2022/11/09 02:47:18;;;;;;;6.80;2.00;;;;;10.60;93745.00;;;;7389661;19;20164;-74
2022/11/09 02:49:52;;;;;;;3.65;1.77;;;;;10.50;93753.00;;;;7391405;19;20149;-75
2022/11/09 02:52:27;;;;;;;2.53;1.63;;;;;10.50;93750.00;;;;7391886;19;20136;-75
2022/11/09 02:54:54;;;;;;;3.10;1.85;;;;;10.40;93755.00;;;;7389820;19;20137;-74
2022/11/09 02:57:22;;;;;;;1.50;1.40;;;;;10.40;93756.00;;;;7390796;19;20137;-76
2022/11/09 02:59:55;;;;;;;1.83;1.67;;;;;10.40;93748.00;;;;7390993;19;20224;-74
2022/11/09 03:02:23;;;;;;;3.17;1.60;;;;;10.50;93750.00;;;;7391323;19;20623;-74
2022/11/09 03:04:50;;;;;;;1.70;1.60;;;;;10.40;93750.00;;;;7387014;19;20133;-75
2022/11/09 03:07:24;;;;;;;2.92;1.70;;;;;10.20;93754.00;;;;7390042;19;20157;-75
2022/11/09 03:09:52;;;;;;;1.65;1.48;;;;;10.20;93751.00;;;;7390080;19;20240;-75
2022/11/09 03:12:29;;;;;;;1.70;1.45;;;;;10.30;93754.00;;;;7392184;19;20159;-75
2022/11/09 03:15:07;;;;;;;2.88;1.60;;;;;10.10;93751.00;;;;7389237;19;20129;-75
2022/11/09 03:17:35;;;;;;;1.60;1.50;;;;;10.00;93746.00;;;;7392441;19;20137;-75
2022/11/09 03:20:02;;;;;;;2.13;1.73;;;;;10.10;93755.00;;;;7393796;19;20856;-75
2022/11/09 03:22:36;;;;;;;2.23;1.73;;;;;10.10;93750.00;;;;7397859;19;20132;-75
2022/11/09 03:25:05;;;;;;;3.63;1.70;;;;;10.00;93750.00;;;;7399039;19;20129;-75
2022/11/09 03:27:32;;;;;;;1.40;1.30;;;;;10.10;93750.00;;;;7397148;19;20132;-75
2022/11/09 03:30:08;;;;;;;1.90;1.50;;;;;10.10;93746.00;;;;7398724;19;20140;-76
2022/11/09 03:32:36;;;;;;;3.50;1.20;;;;;10.00;93737.00;;;;7396066;19;20181;-77
2022/11/09 03:35:04;;;;;;;2.22;1.35;;;;;9.90;93734.00;;;;7394244;19;20236;-77
2022/11/09 03:37:38;;;;;;;1.95;1.60;;;;;9.90;93731.00;;;;7396044;19;20144;-76
2022/11/09 03:40:07;;;;;;;1.90;1.58;;;;;9.90;93734.00;;;;7398459;19;20176;-76
2022/11/09 03:42:34;;;;;;;1.30;1.20;;;;;9.90;93731.00;;;;7398040;19;20509;-76
2022/11/09 03:45:08;;;;;;;3.87;1.70;;;;;9.80;93738.00;;;;7397483;19;20615;-77
2022/11/09 03:47:39;;;;;;;1.83;1.52;;;;;9.80;93733.00;;;;7396645;19;20174;-77
2022/11/09 03:50:07;;;;;;;3.27;1.97;;;;;9.80;93745.00;;;;7396374;19;20273;-76
2022/11/09 03:52:45;;;;;;;1.88;1.63;;;;;9.70;93743.00;;;;7398472;19;20598;-77
2022/11/09 03:55:13;;;;;;;1.52;1.42;;;;;9.80;93746.00;;;;7397086;19;20915;-78
2022/11/09 03:57:40;;;;;;;3.75;1.77;;;;;9.80;93746.00;;;;7398394;19;20153;-77
2022/11/09 04:00:17;;;;;;;2.67;1.60;;;;;9.90;93755.00;;;;7399081;19;20129;-78
2022/11/09 04:02:45;;;;;;;1.70;1.60;;;;;9.90;93752.00;;;;7398397;19;20212;-77
2022/11/09 04:05:13;;;;;;;2.03;1.30;;;;;10.00;93752.00;;;;7395223;19;20202;-76
2022/11/09 04:07:52;;;;;;;3.60;1.58;;;;;10.00;93761.00;;;;7397741;19;20163;-77
2022/11/09 04:10:21;;;;;;;1.52;1.40;;;;;10.10;93754.00;;;;7396066;19;20615;-76
2022/11/09 04:12:55;;;;;;;2.60;1.30;;;;;10.10;93755.00;;;;7395100;19;20144;-75
2022/11/09 04:15:22;;;;;;;2.53;1.50;;;;;9.90;93762.00;;;;7399724;19;20173;-75
2022/11/09 04:17:58;;;;;;;3.67;1.90;;;;;9.80;93761.00;;;;7396835;19;20155;-76
2022/11/09 04:20:35;;;;;;;2.60;1.43;;;;;9.90;93753.00;;;;7401019;19;20637;-76
2022/11/09 04:23:06;;;;;;;2.38;1.50;;;;;9.90;93757.00;;;;7401770;19;20152;-77
2022/11/09 04:25:44;;;;;;;1.90;1.20;;;;;9.80;93750.00;;;;7402247;19;20171;-77
2022/11/09 04:28:12;;;;;;;4.40;1.52;;;;;9.80;93741.00;;;;7399129;19;20204;-76
2022/11/09 04:30:42;;;;;;;2.50;1.40;;;;;9.80;93736.00;;;;7399134;19;20132;-77
2022/11/09 04:33:19;;;;;;;2.17;1.50;;;;;9.80;93737.00;;;;7398344;19;20176;-77
2022/11/09 04:36:11;;;;;;;2.50;1.23;;;;;9.80;93731.00;;;;7397605;19;20479;-76
2022/11/09 04:38:48;;;;;;;2.45;1.40;;;;;9.70;93715.00;;;;7400057;19;20152;-78
2022/11/09 04:41:16;;;;;;;4.07;1.70;;;;;9.70;93721.00;;;;7399613;19;20143;-77
2022/11/09 04:43:44;;;;;;;1.70;1.50;;;;;9.70;93728.00;;;;7399024;19;20140;-77
2022/11/09 04:46:20;;;;;;;3.80;1.90;;;;;9.70;93720.00;;;;7397088;19;20124;-77
2022/11/09 04:48:50;;;;;;;1.83;1.37;;;;;9.70;93720.00;;;;7401322;19;20140;-78
2022/11/09 04:51:21;;;;;;;2.92;1.52;;;;;9.80;93723.00;;;;7397489;19;20158;-79
2022/11/09 04:53:56;;;;;;;2.83;1.80;;;;;9.90;93726.00;;;;7400412;19;20220;-78
2022/11/09 04:56:25;;;;;;;4.83;2.00;;;;;9.90;93733.00;;;;7399455;19;20580;-77
2022/11/09 04:58:53;;;;;;;2.17;1.98;;;;;9.80;93731.00;;;;7402017;19;20610;-78
2022/11/09 05:01:27;;;;;;;2.43;1.83;;;;;9.80;93723.00;;;;7400553;19;20603;-77
2022/11/09 05:03:55;;;;;;;2.40;2.20;;;;;9.80;93718.00;;;;7397457;19;20132;-77
2022/11/09 05:06:32;;;;;;;3.27;2.17;;;;;9.90;93719.00;;;;7397205;19;20155;-77
2022/11/09 05:09:08;;;;;;;3.50;2.80;;;;;9.90;93707.00;;;;7395311;19;20143;-77
2022/11/09 05:11:36;;;;;;;4.43;3.00;;;;;9.90;93714.00;;;;7397749;19;20140;-78
2022/11/09 05:14:04;;;;;;;8.40;3.60;;;;;9.90;93714.00;;;;7397429;19;20152;-78
2022/11/09 05:16:55;;;;;;;6.22;3.70;;;;;9.80;93718.00;;;;7397132;19;20140;-78
2022/11/09 05:19:59;;;;;;;5.87;4.23;;;;;9.80;93716.00;;;;7396143;19;20153;-78
2022/11/09 05:25:48;;;;;;;5.07;4.10;;;;;9.70;93703.00;;;;7397803;19;20505;-78
2022/11/09 05:28:46;;;;;;;5.47;4.17;;;;;9.70;93710.00;;;;7395382;19;20156;-79
2022/11/09 05:31:32;;;;;;;6.93;5.20;;;;;9.90;93705.00;;;;7391648;19;20178;-77
2022/11/09 05:34:13;;;;;;;8.30;5.30;;;;;9.90;93709.00;;;;7397855;19;20515;-78
2022/11/09 05:36:40;;;;;;;6.47;4.85;;;;;9.80;93717.00;;;;7396092;19;20180;-78
2022/11/09 05:39:33;;;;;;;6.60;5.70;;;;;9.70;93718.00;;;;7396185;19;20152;-78
2022/11/09 05:42:05;;;;;;;5.77;4.90;;;;;9.70;93710.00;;;;7395467;19;20151;-78
2022/11/09 05:44:42;;;;;;;6.75;5.65;;;;;9.70;93716.00;;;;7397355;19;20148;-77
2022/11/09 05:47:09;;;;;;;6.33;5.60;;;;;9.70;93710.00;;;;7404337;19;20148;-79
2022/11/09 05:49:37;;;;;;;7.97;5.53;;;;;9.70;93711.00;;;;7403709;19;20162;-78
2022/11/09 05:52:24;;;;;;;8.82;5.95;;;;;9.70;93718.00;;;;7397001;19;20183;-79
2022/11/09 05:54:52;;;;;;;7.73;5.40;;;;;9.80;93732.00;;;;7397898;19;20143;-78
2022/11/09 05:57:26;;;;;;;7.43;5.38;;;;;9.90;93746.00;;;;7395283;19;20156;-77
2022/11/09 05:59:54;;;;;;;7.50;5.60;;;;;10.00;93750.00;;;;7394899;19;20159;-78
2022/11/09 06:02:22;;;;;;;6.57;5.47;;;;;10.00;93751.00;;;;7396202;19;20152;-77
2022/11/09 06:04:58;;;;;;;9.57;5.90;;;;;10.00;93738.00;;;;7400779;19;20498;-78
2022/11/09 06:07:27;;;;;;;5.97;4.90;;;;;10.00;93746.00;;;;7394544;19;20159;-77
2022/11/09 06:09:54;;;;;;;9.23;5.40;;;;;10.00;93752.00;;;;7390866;19;20145;-78
2022/11/09 06:12:30;;;;;;;7.13;5.10;;;;;10.00;93745.00;;;;7391501;19;20509;-76
2022/11/09 06:14:58;;;;;;;6.33;4.90;;;;;9.90;93752.00;;;;7393666;19;20251;-78
2022/11/09 06:17:26;;;;;;;5.50;4.17;;;;;10.00;93746.00;;;;7396802;19;20153;-78
2022/11/09 06:20:03;;;;;;;7.60;4.83;;;;;10.10;93754.00;;;;7393468;19;20178;-78
2022/11/09 06:22:32;;;;;;;4.70;4.20;;;;;10.10;93752.00;;;;7391581;19;20658;-79
2022/11/09 06:24:59;;;;;;;5.53;4.20;;;;;10.10;93746.00;;;;7394100;19;20212;-77
2022/11/09 06:27:33;;;;;;;4.93;4.00;;;;;10.10;93755.00;;;;7396697;19;20136;-77
2022/11/09 06:30:00;;;;;;;5.30;3.90;;;;;10.20;93758.00;;;;7395057;19;20171;-76
2022/11/09 06:32:28;;;;;;;5.80;4.00;;;;;10.10;93766.00;;;;7396209;19;20523;-77
2022/11/09 06:35:02;;;;;;;4.77;3.73;;;;;10.20;93789.00;;;;7394340;19;20612;-78
2022/11/09 06:37:29;;;;;;;8.35;4.20;;;;;10.10;93820.00;;;;7397837;19;20121;-78
2022/11/09 06:39:57;;;;;;;3.83;1.90;;;;;10.00;93835.00;;;;7393610;19;20518;-77
2022/11/09 06:42:31;;;;;;;1.87;1.60;;;;;9.90;93817.00;;;;7394381;19;20172;-77
2022/11/09 06:44:58;;;;;;;1.60;1.00;;;;;9.80;93819.00;;;;7391041;19;20167;-78
2022/11/09 06:47:27;;;;;;;1.60;1.10;;;;;9.80;93814.00;;;;7396781;19;20601;-77
2022/11/09 06:50:15;;;;;;;1.07;0.97;;;;;9.70;93817.00;;;;7394953;19;20145;-78
2022/11/09 06:52:54;;;;;;;2.20;0.73;;;;;9.50;93824.00;;;;7395772;19;20204;-78
2022/11/09 06:55:30;;;;;;;1.23;0.73;;;;;9.60;93823.00;;;;7403964;19;20227;-79
2022/11/09 06:58:09;;;;;;;1.43;0.80;;;;;9.60;93831.00;;;;7409912;19;20678;-79
2022/11/09 07:00:44;;;;;;;1.17;0.95;;;;;9.80;93831.00;;;;7405397;19;20596;-79
2022/11/09 07:03:16;;;;;;;1.30;1.00;;;;;9.80;93836.00;;;;7404808;19;20140;-77
2022/11/09 07:05:52;;;;;;;1.27;1.00;;;;;9.80;93834.00;;;;7403205;19;20595;-77
2022/11/09 07:08:20;;;;;;;0.70;0.70;;;;;9.90;93849.00;;;;7401562;19;20488;-78
2022/11/09 07:10:48;;;;;;;1.37;0.97;;;;;9.90;93847.00;;;;7402124;19;20141;-79
2022/11/09 07:13:22;;;;;;;0.70;0.70;;;;;9.90;93848.00;;;;7399181;19;20140;-78
2022/11/09 07:15:53;;;;;;;0.50;0.50;;;;;9.90;93858.00;;;;7400305;19;20148;-78
2022/11/09 07:18:21;;;;;;;2.60;0.90;;;;;9.80;93850.00;;;;7398888;19;20152;-79
2022/11/09 07:20:55;;;;;;;1.10;1.00;;;;;9.70;93851.00;;;;7400722;19;20151;-78
2022/11/09 07:23:23;;;;;;;0.70;0.70;;;;;9.70;93849.00;;;;7402252;19;20136;-77
2022/11/09 07:25:51;;;;;;;4.13;0.70;;;;;9.80;93844.00;;;;7401777;19;20149;-78
2022/11/09 07:28:25;;;;;;;1.80;0.90;;;;;9.80;93846.00;;;;7399377;19;20160;-76
2022/11/09 07:30:52;;;;;;;3.50;0.90;;;;;9.80;93848.00;;;;7400547;19;20168;-78
2022/11/09 07:33:21;;;;;;;6.70;1.25;;;;;9.80;93851.00;;;;7398230;19;20129;-77
2022/11/09 07:35:56;;;;;;;12.63;1.40;;;;;9.80;93851.00;;;;7399113;19;20519;-75
2022/11/09 07:38:24;;;;;;;0.70;0.70;;;;;9.80;93851.00;;;;7397682;19;20474;-78
2022/11/09 07:40:51;;;;;;;1.42;1.00;;;;;9.90;93849.00;;;;7399120;19;20200;-77
2022/11/09 07:43:26;;;;;;;1.97;1.10;;;;;9.90;93852.00;;;;7400909;19;20155;-77
2022/11/09 07:45:54;;;;;;;2.92;1.27;;;;;9.80;93849.00;;;;7402940;19;20125;-77
2022/11/09 07:48:28;;;;;;;4.10;1.00;;;;;9.90;93850.00;;;;7402385;19;20133;-77
2022/11/09 07:51:09;;;;;;;1.70;1.23;;;;;9.90;93846.00;;;;7400355;19;20172;-77
2022/11/09 07:53:38;;;;;;;1.05;1.00;;;;;9.90;93849.00;;;;7400420;19;20681;-77
2022/11/09 07:56:12;;;;;;;1.40;1.17;;;;;9.90;93838.00;;;;7400586;19;20179;-77
2022/11/09 07:58:41;;;;;;;1.52;1.20;;;;;9.90;93833.00;;;;7400161;19;21053;-78
2022/11/09 08:01:09;;;;;;;2.00;1.20;;;;;10.00;93839.00;;;;7399548;19;20212;-78
2022/11/09 08:03:44;;;;;;;2.65;1.40;;;;;10.10;93843.00;;;;7398977;19;20139;-78
2022/11/09 08:06:11;;;;;;;1.95;1.40;;;;;10.10;93839.00;;;;7398293;19;20125;-78
2022/11/09 08:08:45;;;;;;;3.80;1.67;;;;;10.10;93840.00;;;;7399025;19;20132;-79
2022/11/09 08:11:19;;;;;;;2.42;1.70;;;;;10.30;93843.00;;;;7400145;19;20163;-78
2022/11/09 08:13:46;;;;;;;2.13;1.92;;;;;10.20;93833.00;;;;7399811;19;20510;-79
2022/11/09 08:16:14;;;;;;;2.20;1.90;;;;;10.20;93829.00;;;;7400583;19;20622;-78
2022/11/09 08:18:49;;;;;;;3.63;2.15;;;;;10.30;93834.00;;;;7400506;19;20128;-77
2022/11/09 08:21:17;;;;;;;3.27;2.20;;;;;10.30;93834.00;;;;7400653;19;20128;-78
2022/11/09 08:23:45;;;;;;;3.95;3.00;;;;;10.30;93833.00;;;;7398968;19;20175;-78
2022/11/09 08:26:19;;;;;;;3.17;2.85;;;;;10.30;93834.00;;;;7399068;19;20147;-76
2022/11/09 08:28:47;;;;;;;4.43;3.67;;;;;10.40;93846.00;;;;7395180;19;20727;-78
2022/11/09 08:31:14;;;;;;;4.57;3.65;;;;;10.20;93836.00;;;;7395263;19;20620;-77
2022/11/09 08:33:49;;;;;;;5.20;4.00;;;;;10.40;93839.00;;;;7396231;19;20619;-76
2022/11/09 08:36:17;;;;;;;5.70;3.40;;;;;10.30;93846.00;;;;7395368;19;20150;-77
2022/11/09 08:38:45;;;;;;;4.53;3.72;;;;;10.40;93848.00;;;;7393277;19;20148;-77
2022/11/09 08:41:20;;;;;;;6.82;4.10;;;;;10.40;93843.00;;;;7395696;19;20152;-77
2022/11/09 08:43:47;;;;;;;4.28;3.88;;;;;10.40;93848.00;;;;7396844;19;20211;-78
2022/11/09 08:46:15;;;;;;;12.32;3.58;;;;;10.50;93850.00;;;;7395458;19;20129;-77
2022/11/09 08:48:49;;;;;;;3.67;3.38;;;;;10.70;93854.00;;;;7393695;19;20155;-78
2022/11/09 08:51:23;;;;;;;2.42;2.22;;;;;10.60;93856.00;;;;7395618;19;20503;-74
2022/11/09 08:54:04;;;;;;;3.35;2.50;;;;;10.70;93849.00;;;;7397185;19;20596;-75
2022/11/09 08:56:32;;;;;;;3.22;2.72;;;;;10.70;93854.00;;;;7396382;19;20145;-75
2022/11/09 08:59:06;;;;;;;3.28;2.50;;;;;10.70;93851.00;;;;7393089;19;20152;-76
2022/11/09 09:01:34;;;;;;;2.85;2.53;;;;;10.90;93856.00;;;;7394650;19;20157;-76
2022/11/09 09:04:01;;;;;;;1.70;1.60;;;;;10.90;93851.00;;;;7396438;19;20473;-76
2022/11/09 09:06:36;;;;;;;2.42;2.22;;;;;10.90;93864.00;;;;7395708;19;20148;-77
2022/11/09 09:09:03;;;;;;;3.47;3.10;;;;;11.10;93857.00;;;;7396320;19;20579;-76
2022/11/09 09:11:31;;;;;;;2.00;1.80;;;;;11.30;93861.00;;;;7394691;19;20161;-77
2022/11/09 09:14:05;;;;;;;4.55;2.53;;;;;11.30;93873.00;;;;7395522;19;20153;-77
2022/11/09 09:16:32;;;;;;;3.50;3.20;;;;;11.30;93872.00;;;;7394163;19;20145;-75
2022/11/09 09:19:00;;;;;;;3.55;3.22;;;;;11.30;93873.00;;;;7394226;19;20394;-77
2022/11/09 09:21:35;;;;;;;4.07;3.67;;;;;11.40;93876.00;;;;7396680;19;20215;-77
2022/11/09 09:24:03;;;;;;;5.18;2.90;;;;;11.50;93868.00;;;;7395235;19;20159;-76
2022/11/09 09:26:31;;;;;;;3.08;2.60;;;;;11.30;93866.00;;;;7396357;19;20196;-78
2022/11/09 09:29:05;;;;;;;2.55;2.30;;;;;11.20;93876.00;;;;7393809;19;20224;-76
2022/11/09 09:31:32;;;;;;;2.58;2.38;;;;;11.40;93874.00;;;;7395125;19;20133;-77
2022/11/09 09:34:00;;;;;;;2.33;2.13;;;;;11.30;93875.00;;;;7394847;19;20622;-77
2022/11/09 09:36:34;;;;;;;2.42;2.00;;;;;11.50;93874.00;;;;7392788;19;20469;-77
2022/11/09 09:39:02;;;;;;;4.65;1.70;;;;;11.40;93880.00;;;;7388794;19;20156;-76
2022/11/09 09:41:38;;;;;;;2.63;1.90;;;;;11.60;93873.00;;;;7392636;19;20141;-77
2022/11/09 09:44:27;;;;;;;2.13;1.92;;;;;11.70;93880.00;;;;7393735;19;20164;-77
2022/11/09 09:47:18;;;;;;;3.83;1.80;;;;;11.60;93873.00;;;;7390287;19;20136;-77
2022/11/09 09:49:55;;;;;;;1.92;1.77;;;;;11.60;93870.00;;;;7390221;19;20133;-77
2022/11/09 09:52:55;;;;;;;2.38;1.70;;;;;11.50;93878.00;;;;7389250;19;20199;-77
2022/11/09 09:56:00;;;;;;;2.08;1.45;;;;;11.80;93877.00;;;;7394838;19;20591;-76
2022/11/09 09:58:31;;;;;;;1.40;1.30;;;;;12.00;93870.00;;;;7392616;19;20601;-77
2022/11/09 10:01:21;;;;;;;1.55;1.45;;;;;12.00;93881.00;;;;7394315;19;20124;-77
2022/11/09 10:03:50;;;;;;;2.47;1.48;;;;;12.00;93880.00;;;;7393281;19;20507;-77
2022/11/09 10:06:37;;;;;;;1.52;1.30;;;;;12.10;93875.00;;;;7393452;19;20154;-75
2022/11/09 10:09:20;;;;;;;1.95;1.50;;;;;12.20;93882.00;;;;7391689;19;20160;-76
2022/11/09 10:11:56;;;;;;;1.85;1.50;;;;;12.00;93883.00;;;;7391794;19;20479;-76
2022/11/09 10:15:00;;;;;;;1.83;1.50;;;;;12.10;93888.00;;;;7392109;19;20560;-77
2022/11/09 10:17:59;;;;;;;1.80;1.70;;;;;12.10;93884.00;;;;7394240;19;20167;-77
2022/11/09 10:20:49;;;;;;;1.65;1.55;;;;;12.20;93880.00;;;;7394540;19;20525;-77
2022/11/09 10:23:52;;;;;;;2.13;1.92;;;;;12.20;93874.00;;;;7396536;19;20587;-76
2022/11/09 10:26:32;;;;;;;2.00;1.83;;;;;12.10;93878.00;;;;7397356;19;20137;-76
2022/11/09 10:29:19;;;;;;;1.75;1.65;;;;;12.30;93874.00;;;;7393481;19;20152;-77
2022/11/09 10:31:49;;;;;;;3.35;1.80;;;;;12.30;93874.00;;;;7392949;19;20204;-77
2022/11/09 10:34:28;;;;;;;3.28;1.80;;;;;12.30;93872.00;;;;7393284;19;20148;-76
2022/11/09 10:37:17;;;;;;;2.65;2.15;;;;;12.40;93868.00;;;;7394125;19;20159;-77
2022/11/09 10:40:05;;;;;;;2.08;1.88;;;;;12.60;93866.00;;;;7394098;19;20200;-75
2022/11/09 10:42:33;;;;;;;5.55;2.33;;;;;12.60;93868.00;;;;7392545;19;20635;-76
2022/11/09 10:45:24;;;;;;;2.00;1.80;;;;;12.50;93872.00;;;;7394928;19;20606;-75
2022/11/09 10:47:55;;;;;;;3.60;2.05;;;;;12.80;93853.00;;;;7393591;19;20208;-77
2022/11/09 10:50:57;;;;;;;2.30;1.80;;;;;12.80;93863.00;;;;7394429;19;20144;-78
2022/11/09 10:53:33;;;;;;;2.22;2.03;;;;;13.00;93854.00;;;;7394560;19;20149;-76
2022/11/09 10:56:14;;;;;;;2.13;2.00;;;;;13.20;93853.00;;;;7393718;19;20144;-76
2022/11/09 10:58:52;;;;;;;2.58;2.03;;;;;13.40;93851.00;;;;7391796;19;20135;-77
2022/11/09 11:01:37;;;;;;;3.50;1.98;;;;;13.40;93848.00;;;;7393073;19;20136;-76
2022/11/09 11:04:23;;;;;;;2.20;2.00;;;;;13.30;93842.00;;;;7393607;19;20149;-75
2022/11/09 11:07:11;;;;;;;4.03;2.13;;;;;13.20;93843.00;;;;7393851;19;20212;-76
2022/11/09 11:09:45;;;;;;;2.67;2.00;;;;;13.30;93834.00;;;;7392814;19;20141;-77
2022/11/09 11:12:20;;;;;;;1.83;1.60;;;;;13.60;93836.00;;;;7391247;19;20149;-77
2022/11/09 11:14:48;;;;;;;2.55;2.17;;;;;13.60;93846.00;;;;7390253;19;20251;-76
2022/11/09 11:17:25;;;;;;;2.38;2.00;;;;;13.50;93837.00;;;;7390894;19;20622;-74
2022/11/09 11:20:28;;;;;;;2.22;1.80;;;;;13.30;93844.00;;;;7387246;19;20153;-75
2022/11/09 11:23:21;;;;;;;3.70;1.83;;;;;13.50;93845.00;;;;7390679;19;20136;-76
2022/11/09 11:26:03;;;;;;;4.43;1.90;;;;;13.50;93844.00;;;;7389997;19;20599;-75
2022/11/09 11:28:52;;;;;;;2.38;1.77;;;;;13.50;93848.00;;;;7386338;19;20173;-76
2022/11/09 11:31:27;;;;;;;2.10;1.83;;;;;13.70;93843.00;;;;7389030;19;20173;-74
2022/11/09 11:33:57;;;;;;;3.75;2.25;;;;;13.70;93843.00;;;;7387820;19;20140;-76
2022/11/09 11:36:44;;;;;;;2.55;1.95;;;;;13.80;93849.00;;;;7390510;19;20877;-73
2022/11/09 11:39:49;;;;;;;2.70;2.00;;;;;13.70;93840.00;;;;7387722;19;20619;-75
2022/11/09 11:42:30;;;;;;;2.80;1.70;;;;;13.90;93840.00;;;;7392793;19;20145;-77
2022/11/09 11:45:12;;;;;;;4.95;1.80;;;;;14.10;93840.00;;;;7395058;19;20472;-74
2022/11/09 11:48:48;;;;;;;1.55;1.45;;;;;14.20;93841.00;;;;7395645;19;20526;-75
2022/11/09 11:51:38;;;;;;;3.28;1.20;;;;;14.20;93828.00;;;;7389708;19;20184;-75
2022/11/09 11:54:26;;;;;;;1.45;1.33;;;;;14.20;93830.00;;;;7395922;19;20601;-75
2022/11/09 11:57:33;;;;;;;1.48;1.08;;;;;14.00;93834.00;;;;7392525;19;20125;-76
2022/11/09 12:00:16;;;;;;;1.92;1.13;;;;;13.90;93833.00;;;;7393818;19;20212;-75
2022/11/09 12:03:09;;;;;;;2.60;1.48;;;;;13.90;93829.00;;;;7394009;19;20495;-74
2022/11/09 12:06:00;;;;;;;1.98;1.38;;;;;13.90;93831.00;;;;7393687;19;20200;-75
2022/11/09 12:09:03;;;;;;;1.35;1.25;;;;;13.80;93831.00;;;;7392454;19;20145;-74
2022/11/09 12:11:53;;;;;;;2.67;1.00;;;;;13.90;93828.00;;;;7395762;19;20161;-75
2022/11/09 12:14:32;;;;;;;3.00;1.20;;;;;13.90;93834.00;;;;7392778;19;20514;-74
2022/11/09 12:17:38;;;;;;;3.58;1.38;;;;;13.70;93833.00;;;;7394890;19;20161;-77
2022/11/09 12:20:36;;;;;;;2.25;1.30;;;;;13.80;93831.00;;;;7394675;19;20563;-76
2022/11/09 12:23:31;;;;;;;1.52;1.40;;;;;13.90;93827.00;;;;7392946;19;20611;-76
2022/11/09 12:26:30;;;;;;;1.55;1.20;;;;;13.70;93825.00;;;;7394503;19;20638;-77
2022/11/09 12:29:24;;;;;;;2.85;1.50;;;;;13.80;93827.00;;;;7391319;19;20612;-76
2022/11/09 12:32:22;;;;;;;3.38;1.20;;;;;13.70;93827.00;;;;7393170;19;20201;-76
2022/11/09 12:34:56;;;;;;;4.32;1.15;;;;;13.70;93820.00;;;;7394196;19;20137;-76
2022/11/09 12:37:42;;;;;;;1.27;1.13;;;;;13.80;93827.00;;;;7395105;19;20136;-76
2022/11/09 12:40:33;;;;;;;2.47;1.30;;;;;13.90;93826.00;;;;7391204;19;20188;-75
2022/11/09 12:43:14;;;;;;;1.80;1.30;;;;;14.00;93827.00;;;;7392847;19;20200;-73
2022/11/09 12:45:42;;;;;;;1.65;1.13;;;;;13.80;93825.00;;;;7393790;19;20611;-77
2022/11/09 12:48:28;;;;;;;4.50;1.20;;;;;13.70;93822.00;;;;7391539;19;20144;-75
2022/11/09 12:51:05;;;;;;;3.10;1.50;;;;;13.80;93831.00;;;;7389704;19;20169;-76
2022/11/09 12:53:46;;;;;;;1.10;1.00;;;;;13.60;93824.00;;;;7393041;19;20219;-77
2022/11/09 12:56:18;;;;;;;3.65;1.08;;;;;13.60;93826.00;;;;7395320;19;20216;-77
2022/11/09 12:59:17;;;;;;;3.33;1.20;;;;;13.70;93831.00;;;;7393707;19;20149;-77
2022/11/09 13:01:55;;;;;;;1.90;1.27;;;;;13.80;93827.00;;;;7392202;19;20500;-73
2022/11/09 13:04:32;;;;;;;1.77;1.05;;;;;13.90;93835.00;;;;7395025;19;20135;-76
2022/11/09 13:07:13;;;;;;;9.43;1.20;;;;;13.80;93829.00;;;;7390571;19;20163;-76